createdAt,value
2023-05-16T00:00:15.922Z,98561.19
2023-05-16T00:02:42.607Z,98560.66
2023-05-16T00:05:09.164Z,98561.50
2023-05-16T00:07:35.594Z,98561.97
2023-05-16T00:10:02.039Z,98557.09
2023-05-16T00:12:28.391Z,98562.16
2023-05-16T00:14:54.926Z,98552.88
2023-05-16T00:17:21.374Z,98546.94
2023-05-16T00:19:47.784Z,98555.53
2023-05-16T00:22:14.176Z,98549.13
2023-05-16T00:24:40.512Z,98545.50
2023-05-16T00:27:07.157Z,98565.44
2023-05-16T00:29:33.527Z,98557.47
2023-05-16T00:32:00.442Z,98559.28
2023-05-16T00:34:26.824Z,98553.81
2023-05-16T00:36:53.696Z,98551.91
2023-05-16T00:39:20.084Z,98538.50
2023-05-16T00:41:46.495Z,98553.97
2023-05-16T00:44:13.887Z,98546.97
2023-05-16T00:46:40.385Z,98537.69
2023-05-16T00:49:06.949Z,98537.25
2023-05-16T00:51:35.473Z,98534.22
2023-05-16T00:54:01.834Z,98534.94
2023-05-16T00:56:28.449Z,98534.78
2023-05-16T00:58:57.259Z,98537.41
2023-05-16T01:01:23.822Z,98535.53
2023-05-16T01:03:50.351Z,98532.41
2023-05-16T01:06:16.802Z,98541.09
2023-05-16T01:08:43.194Z,98535.00
2023-05-16T01:11:09.686Z,98523.50
2023-05-16T01:13:36.474Z,98527.38
2023-05-16T01:16:02.871Z,98533.19
2023-05-16T01:18:29.373Z,98530.09
2023-05-16T01:20:55.894Z,98533.19
2023-05-16T01:23:22.308Z,98532.00
2023-05-16T01:25:48.938Z,98540.69
2023-05-16T01:28:15.314Z,98534.16
2023-05-16T01:30:41.721Z,98536.41
2023-05-16T01:33:08.162Z,98526.16
2023-05-16T01:35:34.679Z,98534.03
2023-05-16T01:38:01.049Z,98532.94
2023-05-16T01:40:27.416Z,98533.50
2023-05-16T01:42:53.901Z,98535.13
2023-05-16T01:45:20.581Z,98527.03
2023-05-16T01:47:46.979Z,98528.78
2023-05-16T01:50:13.657Z,98526.00
2023-05-16T01:52:40.047Z,98526.50
2023-05-16T01:55:06.442Z,98520.75
2023-05-16T01:57:32.932Z,98519.41
2023-05-16T01:59:59.335Z,98513.53
2023-05-16T02:02:25.773Z,98512.13
2023-05-16T02:04:52.276Z,98508.72
2023-05-16T02:07:18.738Z,98512.47
2023-05-16T02:09:45.171Z,98508.78
2023-05-16T02:12:11.540Z,98514.03
2023-05-16T02:14:37.924Z,98526.81
2023-05-16T02:17:04.580Z,98522.63
2023-05-16T02:19:31.143Z,98519.91
2023-05-16T02:21:57.711Z,98517.66
2023-05-16T02:24:24.456Z,98515.25
2023-05-16T02:26:51.300Z,98510.88
2023-05-16T02:29:17.683Z,98505.31
2023-05-16T02:31:44.097Z,98507.94
2023-05-16T02:34:10.477Z,98504.19
2023-05-16T02:36:36.967Z,98511.81
2023-05-16T02:39:03.352Z,98506.88
2023-05-16T02:41:29.937Z,98509.28
2023-05-16T02:43:56.353Z,98519.44
2023-05-16T02:46:23.139Z,98517.72
2023-05-16T02:48:49.495Z,98507.72
2023-05-16T02:51:15.952Z,98502.91
2023-05-16T02:53:42.352Z,98501.56
2023-05-16T02:56:08.784Z,98500.25
2023-05-16T02:58:35.418Z,98492.53
2023-05-16T03:01:02.020Z,98488.72
2023-05-16T03:03:28.520Z,98486.38
2023-05-16T03:05:55.021Z,98477.00
2023-05-16T03:08:21.392Z,98477.22
2023-05-16T03:10:47.798Z,98467.59
2023-05-16T03:13:14.185Z,98466.97
2023-05-16T03:15:41.623Z,98465.44
2023-05-16T03:18:08.041Z,98462.19
2023-05-16T03:20:34.527Z,98452.16
2023-05-16T03:23:01.059Z,98452.06
2023-05-16T03:25:27.734Z,98454.13
2023-05-16T03:27:54.266Z,98458.31
2023-05-16T03:30:20.936Z,98460.38
2023-05-16T03:32:47.444Z,98452.13
2023-05-16T03:35:14.401Z,98450.78
2023-05-16T03:37:40.767Z,98449.22
2023-05-16T03:40:07.175Z,98457.75
2023-05-16T03:42:33.586Z,98458.78
2023-05-16T03:44:59.956Z,98459.53
2023-05-16T03:47:26.324Z,98461.84
2023-05-16T03:49:52.769Z,98471.22
2023-05-16T03:52:19.166Z,98474.84
2023-05-16T03:54:45.773Z,98479.19
2023-05-16T03:57:12.124Z,98488.09
2023-05-16T03:59:38.467Z,98501.09
2023-05-16T04:02:04.926Z,98506.38
2023-05-16T04:04:31.505Z,98497.41
2023-05-16T04:06:57.917Z,98486.16
2023-05-16T04:09:24.347Z,98491.47
2023-05-16T04:11:50.820Z,98490.50
2023-05-16T04:14:17.288Z,98488.34
2023-05-16T04:16:44.950Z,98477.00
2023-05-16T04:19:11.391Z,98470.25
2023-05-16T04:21:37.949Z,98464.47
2023-05-16T04:24:04.625Z,98464.25
2023-05-16T04:26:31.204Z,98476.66
2023-05-16T04:28:57.721Z,98472.66
2023-05-16T04:31:24.662Z,98479.91
2023-05-16T04:33:51.092Z,98486.38
2023-05-16T04:36:17.448Z,98491.81
2023-05-16T04:38:43.807Z,98490.34
2023-05-16T04:41:10.160Z,98495.56
2023-05-16T04:43:37.102Z,98491.00
2023-05-16T04:46:03.531Z,98502.56
2023-05-16T04:48:30.004Z,98497.16
2023-05-16T04:50:56.400Z,98517.34
2023-05-16T04:53:22.761Z,98533.84
2023-05-16T04:55:49.182Z,98530.59
2023-05-16T04:58:15.695Z,98544.25
2023-05-16T05:00:42.123Z,98536.97
2023-05-16T05:03:08.478Z,98522.16
2023-05-16T05:05:35.070Z,98531.78
2023-05-16T05:08:01.576Z,98527.00
2023-05-16T05:10:28.004Z,98521.34
2023-05-16T05:12:54.351Z,98517.69
2023-05-16T05:15:21.446Z,98516.25
2023-05-16T05:17:48.193Z,98507.13
2023-05-16T05:20:14.662Z,98501.09
2023-05-16T05:22:41.239Z,98490.25
2023-05-16T05:25:07.655Z,98503.25
2023-05-16T05:27:34.054Z,98526.38
2023-05-16T05:30:02.823Z,98529.41
2023-05-16T05:32:30.313Z,98543.47
2023-05-16T05:34:56.842Z,98553.97
2023-05-16T05:37:23.185Z,98550.69
2023-05-16T05:39:49.768Z,98548.44
2023-05-16T05:42:16.247Z,98548.41
2023-05-16T05:44:42.751Z,98551.81
2023-05-16T05:47:09.185Z,98552.06
2023-05-16T05:49:36.160Z,98550.31
2023-05-16T05:52:02.568Z,98546.75
2023-05-16T05:54:28.937Z,98547.44
2023-05-16T05:56:55.544Z,98548.16
2023-05-16T05:59:22.816Z,98544.78
2023-05-16T06:01:49.265Z,98541.66
2023-05-16T06:04:15.747Z,98542.75
2023-05-16T06:06:42.204Z,98540.94
2023-05-16T06:09:08.626Z,98531.69
2023-05-16T06:11:34.975Z,98541.53
2023-05-16T06:14:01.984Z,98538.06
2023-05-16T06:16:28.450Z,98534.38
2023-05-16T06:18:54.958Z,98537.47
2023-05-16T06:21:21.578Z,98521.22
2023-05-16T06:23:47.922Z,98528.53
2023-05-16T06:26:14.284Z,98518.66
2023-05-16T06:28:40.691Z,98522.69
2023-05-16T06:31:07.014Z,98525.69
2023-05-16T06:33:36.208Z,98529.63
2023-05-16T06:36:03.198Z,98522.84
2023-05-16T06:38:29.743Z,98528.00
2023-05-16T06:40:56.123Z,98529.03
2023-05-16T06:43:22.598Z,98525.94
2023-05-16T06:45:49.046Z,98523.00
2023-05-16T06:48:15.659Z,98529.38
2023-05-16T06:50:42.146Z,98534.75
2023-05-16T06:53:08.695Z,98537.84
2023-05-16T06:55:35.173Z,98542.75
2023-05-16T06:58:01.843Z,98536.09
2023-05-16T07:00:28.289Z,98537.94
2023-05-16T07:02:54.827Z,98530.69
2023-05-16T07:05:21.253Z,98524.22
2023-05-16T07:07:47.685Z,98519.75
2023-05-16T07:10:14.116Z,98520.25
2023-05-16T07:12:40.715Z,98519.16
2023-05-16T07:15:07.168Z,98518.56
2023-05-16T07:17:33.743Z,98521.19
2023-05-16T07:20:01.768Z,98531.56
2023-05-16T07:22:29.343Z,98536.28
2023-05-16T07:24:55.872Z,98539.41
2023-05-16T07:27:23.812Z,98544.06
2023-05-16T07:29:50.484Z,98546.00
2023-05-16T07:32:16.994Z,98551.41
2023-05-16T07:34:43.455Z,98552.75
2023-05-16T07:37:09.862Z,98554.06
2023-05-16T07:39:37.409Z,98549.97
2023-05-16T07:42:03.773Z,98547.88
2023-05-16T07:44:30.202Z,98558.34
2023-05-16T07:46:56.582Z,98563.84
2023-05-16T07:49:23.287Z,98570.28
2023-05-16T07:51:49.743Z,98562.47
2023-05-16T07:54:16.135Z,98576.53
2023-05-16T07:56:42.577Z,98582.22
2023-05-16T07:59:09.059Z,98589.41
2023-05-16T08:01:35.559Z,98594.63
2023-05-16T08:04:02.027Z,98587.97
2023-05-16T08:06:28.452Z,98595.97
2023-05-16T08:08:54.878Z,98584.88
2023-05-16T08:11:21.369Z,98590.41
2023-05-16T08:13:48.177Z,98610.44
2023-05-16T08:16:14.632Z,98606.09
2023-05-16T08:18:41.153Z,98619.69
2023-05-16T08:21:07.687Z,98621.84
2023-05-16T08:23:34.357Z,98633.19
2023-05-16T08:26:01.889Z,98648.28
2023-05-16T08:28:28.311Z,98650.09
2023-05-16T08:30:54.761Z,98651.41
2023-05-16T08:33:21.365Z,98651.66
2023-05-16T08:35:47.778Z,98658.13
2023-05-16T08:38:14.178Z,98650.13
2023-05-16T08:40:40.833Z,98653.34
2023-05-16T08:43:07.331Z,98650.59
2023-05-16T08:45:33.903Z,98650.31
2023-05-16T08:48:00.594Z,98652.88
2023-05-16T08:50:27.125Z,98651.06
2023-05-16T08:52:53.885Z,98643.22
2023-05-16T08:55:20.322Z,98641.31
2023-05-16T08:57:46.825Z,98635.03
2023-05-16T09:00:13.360Z,98636.34
2023-05-16T09:02:39.928Z,98625.28
2023-05-16T09:05:06.652Z,98620.72
2023-05-16T09:07:33.105Z,98620.47
2023-05-16T09:09:59.523Z,98610.84
2023-05-16T09:12:26.362Z,98604.91
2023-05-16T09:14:53.262Z,98599.03
2023-05-16T09:17:25.679Z,98593.59
2023-05-16T09:20:03.121Z,98592.72
2023-05-16T09:22:29.564Z,98586.28
2023-05-16T09:24:56.139Z,98581.78
2023-05-16T09:27:22.766Z,98577.72
2023-05-16T09:29:49.210Z,98566.00
2023-05-16T09:32:16.339Z,98571.03
2023-05-16T09:34:42.756Z,98566.88
2023-05-16T09:37:09.188Z,98566.72
2023-05-16T09:39:35.617Z,98562.03
2023-05-16T09:42:02.052Z,98564.47
2023-05-16T09:44:28.759Z,98549.50
2023-05-16T09:46:55.414Z,98537.84
2023-05-16T09:49:21.950Z,98537.84
2023-05-16T09:51:48.351Z,98537.25
2023-05-16T09:54:15.375Z,98536.75
2023-05-16T09:56:41.983Z,98541.94
2023-05-16T09:59:08.485Z,98551.69
2023-05-16T10:01:34.992Z,98561.06
2023-05-16T10:04:01.676Z,98563.38
2023-05-16T10:06:28.266Z,98565.91
2023-05-16T10:08:54.687Z,98571.56
2023-05-16T10:11:21.153Z,98577.22
2023-05-16T10:13:47.680Z,98578.66
2023-05-16T10:16:14.416Z,98581.56
2023-05-16T10:18:40.982Z,98586.63
2023-05-16T10:21:09.674Z,98600.47
2023-05-16T10:23:37.532Z,98604.91
2023-05-16T10:26:03.988Z,98601.53
2023-05-16T10:28:30.485Z,98600.56
2023-05-16T10:30:56.919Z,98599.72
2023-05-16T10:33:23.399Z,98609.25
2023-05-16T10:35:49.869Z,98599.97
2023-05-16T10:38:16.314Z,98603.38
2023-05-16T10:40:46.131Z,98597.94
2023-05-16T10:43:12.603Z,98609.03
2023-05-16T10:45:39.027Z,98606.84
2023-05-16T10:48:05.574Z,98608.31
2023-05-16T10:50:32.329Z,98617.81
2023-05-16T10:52:58.750Z,98613.63
2023-05-16T10:55:25.640Z,98613.13
2023-05-16T10:57:52.186Z,98602.53
2023-05-16T11:00:18.604Z,98601.53
2023-05-16T11:02:45.058Z,98596.41
2023-05-16T11:05:11.746Z,98594.34
2023-05-16T11:07:38.310Z,98604.22
2023-05-16T11:10:04.749Z,98613.34
2023-05-16T11:12:31.354Z,98608.78
2023-05-16T11:14:58.041Z,98611.91
2023-05-16T11:17:24.552Z,98606.13
2023-05-16T11:19:51.139Z,98603.22
2023-05-16T11:22:17.606Z,98606.13
2023-05-16T11:24:44.066Z,98600.31
2023-05-16T11:27:10.450Z,98598.53
2023-05-16T11:29:37.085Z,98591.03
2023-05-16T11:32:03.817Z,98584.66
2023-05-16T11:34:30.516Z,98569.22
2023-05-16T11:36:58.924Z,98568.75
2023-05-16T11:39:25.571Z,98570.94
2023-05-16T11:41:52.038Z,98567.31
2023-05-16T11:44:18.737Z,98570.34
2023-05-16T11:46:45.240Z,98577.19
2023-05-16T11:49:12.016Z,98573.59
2023-05-16T11:51:38.754Z,98560.09
2023-05-16T11:54:05.163Z,98557.69
2023-05-16T11:56:31.604Z,98557.22
2023-05-16T11:58:58.492Z,98564.34
2023-05-16T12:01:25.000Z,98565.06
2023-05-16T12:03:51.573Z,98565.16
2023-05-16T12:06:18.142Z,98568.16
2023-05-16T12:08:44.559Z,98554.28
2023-05-16T12:11:11.093Z,98546.00
2023-05-16T12:13:37.773Z,98543.59
2023-05-16T12:16:04.194Z,98546.63
2023-05-16T12:18:31.041Z,98547.19
2023-05-16T12:20:57.548Z,98542.97
2023-05-16T12:23:24.982Z,98539.00
2023-05-16T12:25:51.460Z,98530.88
2023-05-16T12:28:17.963Z,98528.03
2023-05-16T12:30:44.295Z,98520.34
2023-05-16T12:33:10.748Z,98514.09
2023-05-16T12:35:37.180Z,98518.44
2023-05-16T12:38:03.610Z,98517.94
2023-05-16T12:40:30.944Z,98518.31
2023-05-16T12:42:57.499Z,98507.34
2023-05-16T12:45:24.829Z,98499.66
2023-05-16T12:47:51.698Z,98493.50
2023-05-16T12:50:18.239Z,98488.06
2023-05-16T12:52:44.758Z,98488.78
2023-05-16T12:55:11.173Z,98485.78
2023-05-16T12:57:39.247Z,98483.00
2023-05-16T13:00:05.908Z,98481.97
2023-05-16T13:02:32.540Z,98487.41
2023-05-16T13:04:59.021Z,98493.50
2023-05-16T13:07:25.397Z,98494.78
2023-05-16T13:09:51.878Z,98492.50
2023-05-16T13:12:18.410Z,98488.53
2023-05-16T13:14:44.852Z,98484.25
2023-05-16T13:17:11.222Z,98478.47
2023-05-16T13:19:37.654Z,98478.00
2023-05-16T13:22:04.127Z,98470.41
2023-05-16T13:24:30.475Z,98452.22
2023-05-16T13:26:57.101Z,98444.34
2023-05-16T13:29:23.495Z,98444.75
2023-05-16T13:31:50.093Z,98456.91
2023-05-16T13:34:16.551Z,98455.84
2023-05-16T13:36:53.858Z,98450.28
2023-05-16T13:39:21.218Z,98462.81
2023-05-16T13:41:48.774Z,98460.53
2023-05-16T13:44:15.646Z,98467.38
2023-05-16T13:46:42.112Z,98473.88
2023-05-16T13:49:08.504Z,98462.47
2023-05-16T13:51:34.958Z,98470.56
2023-05-16T13:54:01.631Z,98479.47
2023-05-16T13:56:28.354Z,98476.06
2023-05-16T13:59:03.663Z,98474.59
2023-05-16T14:01:32.693Z,98467.38
2023-05-16T14:03:59.265Z,98466.34
2023-05-16T14:06:25.661Z,98466.31
2023-05-16T14:08:52.120Z,98450.13
2023-05-16T14:11:18.640Z,98444.91
2023-05-16T14:13:45.184Z,98448.38
2023-05-16T14:16:11.673Z,98449.28
2023-05-16T14:18:38.368Z,98440.03
2023-05-16T14:21:04.774Z,98440.56
2023-05-16T14:23:31.650Z,98446.44
2023-05-16T14:25:58.068Z,98450.31
2023-05-16T14:28:24.627Z,98449.09
2023-05-16T14:30:51.330Z,98461.00
2023-05-16T14:33:18.440Z,98462.34
2023-05-16T14:35:45.468Z,98456.56
2023-05-16T14:38:12.026Z,98445.75
2023-05-16T14:40:38.590Z,98439.94
2023-05-16T14:43:05.666Z,98433.47
2023-05-16T14:45:32.422Z,98429.97
2023-05-16T14:47:59.454Z,98431.66
2023-05-16T14:50:26.424Z,98431.78
2023-05-16T14:52:53.430Z,98426.97
2023-05-16T14:55:20.143Z,98414.09
2023-05-16T14:57:46.766Z,98404.06
2023-05-16T15:00:14.601Z,98418.56
2023-05-16T15:02:42.423Z,98436.22
2023-05-16T15:05:12.046Z,98428.16
2023-05-16T15:07:38.896Z,98431.69
2023-05-16T15:10:06.220Z,98430.56
2023-05-16T15:12:33.510Z,98440.56
2023-05-16T15:15:01.586Z,98435.28
2023-05-16T15:17:31.298Z,98429.72
2023-05-16T15:19:58.438Z,98430.00
2023-05-16T15:22:25.933Z,98428.03
2023-05-16T15:24:53.895Z,98422.25
2023-05-16T15:27:21.375Z,98415.94
2023-05-16T15:29:50.803Z,98419.41
2023-05-16T15:32:18.022Z,98420.78
2023-05-16T15:34:45.246Z,98418.78
2023-05-16T15:37:12.535Z,98419.81
2023-05-16T15:39:39.670Z,98420.91
2023-05-16T15:42:11.265Z,98422.16
2023-05-16T15:44:38.852Z,98425.16
2023-05-16T15:47:06.252Z,98420.91
2023-05-16T15:49:33.385Z,98420.09
2023-05-16T15:52:01.766Z,98422.22
2023-05-16T15:54:29.139Z,98418.03
2023-05-16T15:56:58.642Z,98421.47
2023-05-16T15:59:25.816Z,98399.09
2023-05-16T16:01:53.084Z,98409.50
2023-05-16T16:04:22.435Z,98406.91
2023-05-16T16:06:50.801Z,98403.97
2023-05-16T16:09:18.596Z,98393.31
2023-05-16T16:11:48.605Z,98399.78
2023-05-16T16:14:15.881Z,98386.72
2023-05-16T16:16:43.667Z,98387.72
2023-05-16T16:19:11.178Z,98385.06
2023-05-16T16:21:39.080Z,98378.31
2023-05-16T16:24:06.403Z,98370.31
2023-05-16T16:26:34.136Z,98367.84
2023-05-16T16:29:01.450Z,98365.31
2023-05-16T16:31:28.774Z,98370.63
2023-05-16T16:33:56.058Z,98374.75
2023-05-16T16:36:23.644Z,98372.47
2023-05-16T16:38:51.942Z,98383.06
2023-05-16T16:41:19.651Z,98376.63
2023-05-16T16:43:46.823Z,98369.72
2023-05-16T16:46:14.120Z,98376.50
2023-05-16T16:48:41.570Z,98375.66
2023-05-16T16:51:08.821Z,98375.41
2023-05-16T16:53:36.002Z,98372.72
2023-05-16T16:56:03.307Z,98369.66
2023-05-16T16:58:31.155Z,98370.31
2023-05-16T17:00:58.455Z,98370.22
2023-05-16T17:03:30.823Z,98380.56
2023-05-16T17:05:58.092Z,98374.63
2023-05-16T17:08:25.277Z,98365.31
2023-05-16T17:10:53.570Z,98367.91
2023-05-16T17:13:21.139Z,98361.44
2023-05-16T17:15:48.241Z,98362.84
2023-05-16T17:18:15.564Z,98360.25
2023-05-16T17:20:42.896Z,98367.69
2023-05-16T17:23:10.104Z,98372.63
2023-05-16T17:25:37.412Z,98376.56
2023-05-16T17:28:05.290Z,98375.19
2023-05-16T17:30:32.548Z,98375.03
2023-05-16T17:33:00.144Z,98377.03
2023-05-16T17:35:28.677Z,98371.91
2023-05-16T17:37:56.185Z,98373.47
2023-05-16T17:40:23.543Z,98372.38
2023-05-16T17:42:50.856Z,98382.22
2023-05-16T17:45:18.778Z,98391.69
2023-05-16T17:47:46.417Z,98396.34
2023-05-16T17:50:13.882Z,98397.75
2023-05-16T17:52:41.724Z,98400.41
2023-05-16T17:55:11.041Z,98408.59
2023-05-16T17:57:38.225Z,98414.44
2023-05-16T18:00:05.513Z,98425.97
2023-05-16T18:02:32.948Z,98416.00
2023-05-16T18:05:00.246Z,98414.78
2023-05-16T18:07:28.136Z,98405.38
2023-05-16T18:09:55.903Z,98405.91
2023-05-16T18:12:23.583Z,98409.16
2023-05-16T18:14:50.757Z,98406.16
2023-05-16T18:17:17.966Z,98408.06
2023-05-16T18:19:45.292Z,98402.75
2023-05-16T18:22:12.659Z,98403.47
2023-05-16T18:24:39.882Z,98405.81
2023-05-16T18:27:07.109Z,98404.09
2023-05-16T18:29:34.451Z,98413.47
2023-05-16T18:32:01.708Z,98405.06
2023-05-16T18:34:28.887Z,98409.81
2023-05-16T18:36:56.226Z,98410.81
2023-05-16T18:39:24.635Z,98412.56
2023-05-16T18:41:51.873Z,98417.69
2023-05-16T18:44:19.183Z,98420.00
2023-05-16T18:46:49.699Z,98413.00
2023-05-16T18:49:21.532Z,98423.16
2023-05-16T18:51:48.833Z,98418.41
2023-05-16T18:54:16.092Z,98423.47
2023-05-16T18:56:43.551Z,98417.47
2023-05-16T18:59:10.797Z,98417.00
2023-05-16T19:01:38.060Z,98413.59
2023-05-16T19:04:05.369Z,98416.63
2023-05-16T19:06:32.764Z,98406.84
2023-05-16T19:09:00.833Z,98407.28
2023-05-16T19:11:28.258Z,98405.94
2023-05-16T19:13:55.525Z,98407.47
2023-05-16T19:16:22.815Z,98413.53
2023-05-16T19:18:50.145Z,98411.91
2023-05-16T19:21:17.527Z,98426.56
2023-05-16T19:23:46.996Z,98433.41
2023-05-16T19:26:15.215Z,98433.56
2023-05-16T19:28:42.901Z,98440.88
2023-05-16T19:31:10.136Z,98446.13
2023-05-16T19:33:37.305Z,98449.19
2023-05-16T19:36:04.595Z,98450.38
2023-05-16T19:38:31.840Z,98461.88
2023-05-16T19:40:59.972Z,98454.56
2023-05-16T19:43:28.396Z,98467.84
2023-05-16T19:45:55.448Z,98467.94
2023-05-16T19:48:22.797Z,98471.00
2023-05-16T19:50:50.050Z,98477.91
2023-05-16T19:53:17.799Z,98471.78
2023-05-16T19:55:45.046Z,98477.06
2023-05-16T19:58:12.259Z,98477.53
2023-05-16T20:00:39.384Z,98478.06
2023-05-16T20:03:06.564Z,98485.94
2023-05-16T20:05:33.718Z,98486.03
2023-05-16T20:08:01.238Z,98475.16
2023-05-16T20:10:28.540Z,98481.38
2023-05-16T20:12:55.744Z,98468.00
2023-05-16T20:15:22.954Z,98471.38
2023-05-16T20:17:50.973Z,98459.81
2023-05-16T20:20:18.177Z,98451.53
2023-05-16T20:22:45.461Z,98450.94
2023-05-16T20:25:13.037Z,98462.09
2023-05-16T20:27:40.244Z,98449.94
2023-05-16T20:30:07.584Z,98449.50
2023-05-16T20:32:35.384Z,98449.31
2023-05-16T20:35:02.595Z,98445.63
2023-05-16T20:37:29.780Z,98442.69
2023-05-16T20:39:56.905Z,98437.66
2023-05-16T20:42:24.050Z,98434.75
2023-05-16T20:44:53.923Z,98446.34
2023-05-16T20:47:21.082Z,98428.28
2023-05-16T20:49:48.248Z,98441.25
2023-05-16T20:52:15.362Z,98453.75
2023-05-16T20:54:42.052Z,98437.16
2023-05-16T20:57:08.695Z,98430.66
2023-05-16T20:59:35.145Z,98435.16
2023-05-16T21:02:01.646Z,98440.47
2023-05-16T21:04:28.303Z,98424.63
2023-05-16T21:06:54.781Z,98433.41
2023-05-16T21:09:21.295Z,98444.25
2023-05-16T21:11:47.788Z,98443.00
2023-05-16T21:14:14.268Z,98448.16
2023-05-16T21:16:40.910Z,98444.03
2023-05-16T21:19:07.718Z,98442.03
2023-05-16T21:21:34.206Z,98447.63
2023-05-16T21:24:00.626Z,98449.63
2023-05-16T21:26:29.023Z,98454.19
2023-05-16T21:28:56.139Z,98452.91
2023-05-16T21:31:22.732Z,98456.06
2023-05-16T21:33:49.269Z,98459.47
2023-05-16T21:36:15.849Z,98453.13
2023-05-16T21:38:42.639Z,98451.84
2023-05-16T21:41:09.153Z,98451.22
2023-05-16T21:43:35.588Z,98454.50
2023-05-16T21:46:02.060Z,98446.69
2023-05-16T21:48:28.860Z,98460.50
2023-05-16T21:50:55.624Z,98463.03
2023-05-16T21:53:22.809Z,98463.69
2023-05-16T21:55:49.313Z,98461.16
2023-05-16T21:58:15.685Z,98466.25
2023-05-16T22:00:42.386Z,98467.47
2023-05-16T22:03:09.145Z,98468.75
2023-05-16T22:05:35.618Z,98476.31
2023-05-16T22:08:03.210Z,98489.03
2023-05-16T22:10:29.923Z,98472.75
2023-05-16T22:12:56.342Z,98466.41
2023-05-16T22:15:22.976Z,98476.69
2023-05-16T22:17:49.559Z,98468.41
2023-05-16T22:20:16.096Z,98475.94
2023-05-16T22:22:42.610Z,98483.94
2023-05-16T22:25:09.409Z,98481.59
2023-05-16T22:27:35.865Z,98475.72
2023-05-16T22:30:02.247Z,98476.78
2023-05-16T22:32:28.943Z,98474.38
2023-05-16T22:34:55.492Z,98473.63
2023-05-16T22:37:21.902Z,98484.72
2023-05-16T22:39:48.312Z,98459.44
2023-05-16T22:42:14.684Z,98456.38
2023-05-16T22:44:41.077Z,98465.13
2023-05-16T22:47:07.442Z,98456.94
2023-05-16T22:49:33.816Z,98458.00
2023-05-16T22:52:00.223Z,98461.19
2023-05-16T22:54:26.862Z,98460.28
2023-05-16T22:56:53.513Z,98448.78
2023-05-16T22:59:21.273Z,98459.47
2023-05-16T23:01:47.664Z,98467.44
2023-05-16T23:04:14.177Z,98474.47
2023-05-16T23:06:40.703Z,98467.72
2023-05-16T23:09:07.096Z,98466.13
2023-05-16T23:11:33.634Z,98472.50
2023-05-16T23:14:00.144Z,98475.78
2023-05-16T23:16:26.523Z,98479.56
2023-05-16T23:18:53.186Z,98481.22
2023-05-16T23:21:19.842Z,98477.22
2023-05-16T23:23:46.256Z,98497.88
2023-05-16T23:26:12.668Z,98478.59
2023-05-16T23:28:39.073Z,98496.53
2023-05-16T23:31:06.382Z,98488.44
2023-05-16T23:33:32.909Z,98495.94
2023-05-16T23:35:59.704Z,98501.00
2023-05-16T23:38:26.115Z,98489.19
2023-05-16T23:40:52.655Z,98490.81
2023-05-16T23:43:19.143Z,98497.81
2023-05-16T23:45:45.599Z,98491.72
2023-05-16T23:48:12.107Z,98489.34
2023-05-16T23:50:38.612Z,98483.44
2023-05-16T23:53:05.044Z,98488.06
2023-05-16T23:55:31.531Z,98483.00
2023-05-16T23:57:58.017Z,98480.53
